sensor_id;sensor_type;location;lat;lon;timestamp;P1;durP1;ratioP1;P2;durP2;ratioP2
39016;SDS011;24784;45.582;5.276;2023-03-21T00:01:22;8.85;;;5.97;;
39016;SDS011;24784;45.582;5.276;2023-03-21T00:03:48;10.10;;;6.32;;
39016;SDS011;24784;45.582;5.276;2023-03-21T00:06:15;9.07;;;6.15;;
39016;SDS011;24784;45.582;5.276;2023-03-21T00:08:41;18.48;;;7.00;;
39016;SDS011;24784;45.582;5.276;2023-03-21T00:11:09;14.65;;;7.30;;
39016;SDS011;24784;45.582;5.276;2023-03-21T00:13:36;10.50;;;6.28;;
39016;SDS011;24784;45.582;5.276;2023-03-21T00:16:10;10.52;;;7.20;;
39016;SDS011;24784;45.582;5.276;2023-03-21T00:18:45;11.88;;;7.00;;
39016;SDS011;24784;45.582;5.276;2023-03-21T00:21:16;14.40;;;6.85;;
39016;SDS011;24784;45.582;5.276;2023-03-21T00:23:43;12.40;;;6.88;;
39016;SDS011;24784;45.582;5.276;2023-03-21T00:26:11;21.85;;;7.60;;
39016;SDS011;24784;45.582;5.276;2023-03-21T00:28:38;17.45;;;7.30;;
39016;SDS011;24784;45.582;5.276;2023-03-21T00:31:06;11.85;;;6.78;;
39016;SDS011;24784;45.582;5.276;2023-03-21T00:33:33;9.80;;;7.07;;
39016;SDS011;24784;45.582;5.276;2023-03-21T00:35:59;16.95;;;6.95;;
39016;SDS011;24784;45.582;5.276;2023-03-21T00:38:26;11.88;;;6.70;;
39016;SDS011;24784;45.582;5.276;2023-03-21T00:40:53;10.05;;;6.40;;
39016;SDS011;24784;45.582;5.276;2023-03-21T00:43:19;14.90;;;6.50;;
39016;SDS011;24784;45.582;5.276;2023-03-21T00:45:48;11.88;;;6.63;;
39016;SDS011;24784;45.582;5.276;2023-03-21T00:48:15;9.48;;;6.05;;
39016;SDS011;24784;45.582;5.276;2023-03-21T00:50:42;11.00;;;6.57;;
39016;SDS011;24784;45.582;5.276;2023-03-21T00:53:11;10.35;;;6.80;;
39016;SDS011;24784;45.582;5.276;2023-03-21T00:55:38;10.82;;;6.03;;
39016;SDS011;24784;45.582;5.276;2023-03-21T00:58:04;9.50;;;6.10;;
39016;SDS011;24784;45.582;5.276;2023-03-21T01:00:31;10.10;;;6.28;;
39016;SDS011;24784;45.582;5.276;2023-03-21T01:02:58;15.05;;;6.88;;
39016;SDS011;24784;45.582;5.276;2023-03-21T01:05:30;11.88;;;6.97;;
39016;SDS011;24784;45.582;5.276;2023-03-21T01:08:16;9.93;;;6.03;;
39016;SDS011;24784;45.582;5.276;2023-03-21T01:10:45;13.50;;;6.43;;
39016;SDS011;24784;45.582;5.276;2023-03-21T01:13:14;10.93;;;6.57;;
39016;SDS011;24784;45.582;5.276;2023-03-21T01:15:47;10.20;;;6.57;;
39016;SDS011;24784;45.582;5.276;2023-03-21T01:18:16;14.15;;;6.30;;
39016;SDS011;24784;45.582;5.276;2023-03-21T01:20:46;9.80;;;6.25;;
39016;SDS011;24784;45.582;5.276;2023-03-21T01:23:13;9.70;;;6.07;;
39016;SDS011;24784;45.582;5.276;2023-03-21T01:25:39;9.00;;;6.50;;
39016;SDS011;24784;45.582;5.276;2023-03-21T01:28:06;9.65;;;6.35;;
39016;SDS011;24784;45.582;5.276;2023-03-21T01:30:33;9.85;;;6.22;;
39016;SDS011;24784;45.582;5.276;2023-03-21T01:32:59;12.60;;;6.35;;
39016;SDS011;24784;45.582;5.276;2023-03-21T01:35:25;11.35;;;6.45;;
39016;SDS011;24784;45.582;5.276;2023-03-21T01:37:51;11.60;;;6.38;;
39016;SDS011;24784;45.582;5.276;2023-03-21T01:40:20;11.05;;;6.93;;
39016;SDS011;24784;45.582;5.276;2023-03-21T01:42:48;12.52;;;6.40;;
39016;SDS011;24784;45.582;5.276;2023-03-21T01:48:18;11.82;;;7.05;;
39016;SDS011;24784;45.582;5.276;2023-03-21T01:50:47;12.65;;;6.72;;
39016;SDS011;24784;45.582;5.276;2023-03-21T01:53:13;8.95;;;5.90;;
39016;SDS011;24784;45.582;5.276;2023-03-21T01:55:40;12.25;;;6.40;;
39016;SDS011;24784;45.582;5.276;2023-03-21T01:58:07;10.48;;;6.15;;
39016;SDS011;24784;45.582;5.276;2023-03-21T02:00:36;18.30;;;6.47;;
39016;SDS011;24784;45.582;5.276;2023-03-21T02:03:04;11.15;;;6.47;;
39016;SDS011;24784;45.582;5.276;2023-03-21T02:08:39;10.35;;;6.03;;
39016;SDS011;24784;45.582;5.276;2023-03-21T02:11:06;17.70;;;7.25;;
39016;SDS011;24784;45.582;5.276;2023-03-21T02:13:34;11.60;;;6.88;;
39016;SDS011;24784;45.582;5.276;2023-03-21T02:16:22;8.68;;;6.60;;
39016;SDS011;24784;45.582;5.276;2023-03-21T02:21:44;11.77;;;6.72;;
39016;SDS011;24784;45.582;5.276;2023-03-21T02:27:33;13.63;;;7.10;;
39016;SDS011;24784;45.582;5.276;2023-03-21T02:33:30;13.73;;;6.88;;
39016;SDS011;24784;45.582;5.276;2023-03-21T02:47:07;9.85;;;5.28;;
39016;SDS011;24784;45.582;5.276;2023-03-21T02:49:39;10.48;;;5.70;;
39016;SDS011;24784;45.582;5.276;2023-03-21T02:52:17;9.27;;;5.75;;
39016;SDS011;24784;45.582;5.276;2023-03-21T02:54:47;12.43;;;6.07;;
39016;SDS011;24784;45.582;5.276;2023-03-21T02:57:16;8.85;;;6.15;;
39016;SDS011;24784;45.582;5.276;2023-03-21T02:59:44;16.50;;;6.88;;
39016;SDS011;24784;45.582;5.276;2023-03-21T03:02:13;10.27;;;6.00;;
39016;SDS011;24784;45.582;5.276;2023-03-21T03:04:41;9.07;;;6.13;;
39016;SDS011;24784;45.582;5.276;2023-03-21T03:07:12;9.68;;;6.15;;
39016;SDS011;24784;45.582;5.276;2023-03-21T03:12:54;10.18;;;5.75;;
39016;SDS011;24784;45.582;5.276;2023-03-21T03:18:57;10.85;;;6.00;;
39016;SDS011;24784;45.582;5.276;2023-03-21T03:21:31;7.80;;;5.47;;
39016;SDS011;24784;45.582;5.276;2023-03-21T03:26:50;8.73;;;5.22;;
39016;SDS011;24784;45.582;5.276;2023-03-21T03:29:19;6.93;;;4.93;;
39016;SDS011;24784;45.582;5.276;2023-03-21T03:31:50;9.32;;;4.70;;
39016;SDS011;24784;45.582;5.276;2023-03-21T03:34:25;9.80;;;5.30;;
39016;SDS011;24784;45.582;5.276;2023-03-21T03:36:58;7.03;;;5.05;;
39016;SDS011;24784;45.582;5.276;2023-03-21T03:42:32;10.73;;;5.38;;
39016;SDS011;24784;45.582;5.276;2023-03-21T03:45:00;6.18;;;4.75;;
39016;SDS011;24784;45.582;5.276;2023-03-21T03:47:39;10.45;;;5.45;;
39016;SDS011;24784;45.582;5.276;2023-03-21T03:52:41;8.88;;;5.25;;
39016;SDS011;24784;45.582;5.276;2023-03-21T03:55:15;8.50;;;5.30;;
39016;SDS011;24784;45.582;5.276;2023-03-21T03:57:43;8.07;;;5.40;;
39016;SDS011;24784;45.582;5.276;2023-03-21T04:00:12;9.63;;;4.93;;
39016;SDS011;24784;45.582;5.276;2023-03-21T04:02:41;8.27;;;5.53;;
39016;SDS011;24784;45.582;5.276;2023-03-21T04:05:07;11.25;;;5.25;;
39016;SDS011;24784;45.582;5.276;2023-03-21T04:07:34;9.10;;;5.10;;
39016;SDS011;24784;45.582;5.276;2023-03-21T04:10:00;8.07;;;4.82;;
39016;SDS011;24784;45.582;5.276;2023-03-21T04:12:26;10.82;;;5.32;;
39016;SDS011;24784;45.582;5.276;2023-03-21T04:17:21;11.45;;;5.60;;
39016;SDS011;24784;45.582;5.276;2023-03-21T04:19:47;8.95;;;5.50;;
39016;SDS011;24784;45.582;5.276;2023-03-21T04:22:15;10.02;;;5.57;;
39016;SDS011;24784;45.582;5.276;2023-03-21T04:24:42;6.68;;;4.70;;
39016;SDS011;24784;45.582;5.276;2023-03-21T04:27:08;13.30;;;5.47;;
39016;SDS011;24784;45.582;5.276;2023-03-21T04:29:35;10.27;;;4.97;;
39016;SDS011;24784;45.582;5.276;2023-03-21T04:32:01;7.63;;;4.88;;
39016;SDS011;24784;45.582;5.276;2023-03-21T04:34:27;7.10;;;5.13;;
39016;SDS011;24784;45.582;5.276;2023-03-21T04:36:53;9.77;;;5.18;;
39016;SDS011;24784;45.582;5.276;2023-03-21T04:39:20;12.73;;;5.13;;
39016;SDS011;24784;45.582;5.276;2023-03-21T04:41:46;9.27;;;5.55;;
39016;SDS011;24784;45.582;5.276;2023-03-21T04:44:14;8.20;;;5.43;;
39016;SDS011;24784;45.582;5.276;2023-03-21T04:46:41;7.05;;;5.10;;
39016;SDS011;24784;45.582;5.276;2023-03-21T04:49:07;8.75;;;5.65;;
39016;SDS011;24784;45.582;5.276;2023-03-21T04:51:34;8.18;;;5.38;;
39016;SDS011;24784;45.582;5.276;2023-03-21T04:54:00;10.75;;;6.07;;
39016;SDS011;24784;45.582;5.276;2023-03-21T04:56:27;8.63;;;5.95;;
39016;SDS011;24784;45.582;5.276;2023-03-21T04:59:02;8.05;;;5.60;;
39016;SDS011;24784;45.582;5.276;2023-03-21T05:01:31;9.25;;;6.00;;
39016;SDS011;24784;45.582;5.276;2023-03-21T05:03:58;10.27;;;6.18;;
39016;SDS011;24784;45.582;5.276;2023-03-21T05:06:26;8.80;;;5.72;;
39016;SDS011;24784;45.582;5.276;2023-03-21T05:08:55;10.07;;;5.43;;
39016;SDS011;24784;45.582;5.276;2023-03-21T05:11:28;8.63;;;5.93;;
39016;SDS011;24784;45.582;5.276;2023-03-21T05:13:55;10.02;;;5.18;;
39016;SDS011;24784;45.582;5.276;2023-03-21T05:16:25;7.90;;;5.43;;
39016;SDS011;24784;45.582;5.276;2023-03-21T05:18:54;7.75;;;4.90;;
39016;SDS011;24784;45.582;5.276;2023-03-21T05:21:21;8.38;;;5.13;;
39016;SDS011;24784;45.582;5.276;2023-03-21T05:23:47;10.30;;;4.90;;
39016;SDS011;24784;45.582;5.276;2023-03-21T05:26:18;7.72;;;4.78;;
39016;SDS011;24784;45.582;5.276;2023-03-21T05:28:45;6.30;;;4.97;;
39016;SDS011;24784;45.582;5.276;2023-03-21T05:31:15;7.75;;;5.20;;
39016;SDS011;24784;45.582;5.276;2023-03-21T05:33:43;6.32;;;4.90;;
39016;SDS011;24784;45.582;5.276;2023-03-21T05:36:09;5.18;;;4.35;;
39016;SDS011;24784;45.582;5.276;2023-03-21T05:38:35;6.88;;;5.13;;
39016;SDS011;24784;45.582;5.276;2023-03-21T05:41:03;8.18;;;5.10;;
39016;SDS011;24784;45.582;5.276;2023-03-21T05:43:29;6.20;;;4.85;;
39016;SDS011;24784;45.582;5.276;2023-03-21T05:45:55;9.95;;;5.20;;
39016;SDS011;24784;45.582;5.276;2023-03-21T05:48:22;6.97;;;4.53;;
39016;SDS011;24784;45.582;5.276;2023-03-21T05:50:48;9.27;;;4.85;;
39016;SDS011;24784;45.582;5.276;2023-03-21T05:53:14;12.25;;;6.15;;
39016;SDS011;24784;45.582;5.276;2023-03-21T05:55:40;10.68;;;5.18;;
39016;SDS011;24784;45.582;5.276;2023-03-21T05:58:05;12.43;;;5.20;;
39016;SDS011;24784;45.582;5.276;2023-03-21T06:00:31;8.27;;;5.45;;
39016;SDS011;24784;45.582;5.276;2023-03-21T06:02:57;7.25;;;5.57;;
39016;SDS011;24784;45.582;5.276;2023-03-21T06:05:23;9.02;;;5.03;;
39016;SDS011;24784;45.582;5.276;2023-03-21T06:07:49;9.27;;;5.57;;
39016;SDS011;24784;45.582;5.276;2023-03-21T06:10:15;9.25;;;6.68;;
39016;SDS011;24784;45.582;5.276;2023-03-21T06:12:41;9.48;;;5.25;;
39016;SDS011;24784;45.582;5.276;2023-03-21T06:15:07;11.85;;;6.30;;
39016;SDS011;24784;45.582;5.276;2023-03-21T06:17:34;12.23;;;5.85;;
39016;SDS011;24784;45.582;5.276;2023-03-21T06:20:00;11.63;;;6.15;;
39016;SDS011;24784;45.582;5.276;2023-03-21T06:22:27;12.75;;;5.75;;
39016;SDS011;24784;45.582;5.276;2023-03-21T06:24:53;9.98;;;6.57;;
39016;SDS011;24784;45.582;5.276;2023-03-21T06:27:19;10.73;;;6.18;;
39016;SDS011;24784;45.582;5.276;2023-03-21T06:29:45;14.25;;;6.00;;
39016;SDS011;24784;45.582;5.276;2023-03-21T06:32:11;8.73;;;5.55;;
39016;SDS011;24784;45.582;5.276;2023-03-21T06:34:37;13.25;;;6.68;;
39016;SDS011;24784;45.582;5.276;2023-03-21T06:37:03;10.50;;;6.75;;
39016;SDS011;24784;45.582;5.276;2023-03-21T06:39:29;12.45;;;7.75;;
39016;SDS011;24784;45.582;5.276;2023-03-21T06:41:57;13.73;;;8.85;;
39016;SDS011;24784;45.582;5.276;2023-03-21T06:44:23;13.45;;;8.43;;
39016;SDS011;24784;45.582;5.276;2023-03-21T06:46:50;13.52;;;7.55;;
39016;SDS011;24784;45.582;5.276;2023-03-21T06:49:16;13.35;;;8.10;;
39016;SDS011;24784;45.582;5.276;2023-03-21T06:51:42;13.75;;;7.80;;
39016;SDS011;24784;45.582;5.276;2023-03-21T06:54:08;14.77;;;7.95;;
39016;SDS011;24784;45.582;5.276;2023-03-21T06:56:34;13.75;;;8.88;;
39016;SDS011;24784;45.582;5.276;2023-03-21T06:59:00;14.68;;;8.73;;
39016;SDS011;24784;45.582;5.276;2023-03-21T07:01:26;10.02;;;7.30;;
39016;SDS011;24784;45.582;5.276;2023-03-21T07:03:54;13.98;;;8.00;;
39016;SDS011;24784;45.582;5.276;2023-03-21T07:06:22;13.77;;;8.00;;
39016;SDS011;24784;45.582;5.276;2023-03-21T07:08:50;12.18;;;7.85;;
39016;SDS011;24784;45.582;5.276;2023-03-21T07:11:16;11.20;;;7.50;;
39016;SDS011;24784;45.582;5.276;2023-03-21T07:13:42;9.98;;;7.20;;
39016;SDS011;24784;45.582;5.276;2023-03-21T07:16:08;12.85;;;7.93;;
39016;SDS011;24784;45.582;5.276;2023-03-21T07:18:35;11.88;;;7.35;;
39016;SDS011;24784;45.582;5.276;2023-03-21T07:21:01;10.43;;;7.10;;
39016;SDS011;24784;45.582;5.276;2023-03-21T07:23:27;12.80;;;7.57;;
39016;SDS011;24784;45.582;5.276;2023-03-21T07:25:53;9.35;;;6.85;;
39016;SDS011;24784;45.582;5.276;2023-03-21T07:28:19;11.80;;;7.43;;
39016;SDS011;24784;45.582;5.276;2023-03-21T07:30:51;10.13;;;6.45;;
39016;SDS011;24784;45.582;5.276;2023-03-21T07:33:22;13.57;;;6.70;;
39016;SDS011;24784;45.582;5.276;2023-03-21T07:35:49;19.70;;;6.38;;
39016;SDS011;24784;45.582;5.276;2023-03-21T07:38:16;9.82;;;5.80;;
39016;SDS011;24784;45.582;5.276;2023-03-21T07:40:43;11.52;;;6.13;;
39016;SDS011;24784;45.582;5.276;2023-03-21T07:43:10;9.30;;;5.43;;
39016;SDS011;24784;45.582;5.276;2023-03-21T07:45:36;8.20;;;5.38;;
39016;SDS011;24784;45.582;5.276;2023-03-21T07:48:02;7.97;;;5.75;;
39016;SDS011;24784;45.582;5.276;2023-03-21T07:50:28;7.65;;;5.57;;
39016;SDS011;24784;45.582;5.276;2023-03-21T07:52:54;8.57;;;6.03;;
39016;SDS011;24784;45.582;5.276;2023-03-21T07:55:20;10.63;;;6.18;;
39016;SDS011;24784;45.582;5.276;2023-03-21T07:57:48;10.05;;;5.93;;
39016;SDS011;24784;45.582;5.276;2023-03-21T08:00:16;9.07;;;5.97;;
39016;SDS011;24784;45.582;5.276;2023-03-21T08:02:55;9.73;;;5.97;;
39016;SDS011;24784;45.582;5.276;2023-03-21T08:05:26;10.68;;;7.05;;
39016;SDS011;24784;45.582;5.276;2023-03-21T08:08:00;11.30;;;6.95;;
39016;SDS011;24784;45.582;5.276;2023-03-21T08:10:26;12.48;;;7.13;;
39016;SDS011;24784;45.582;5.276;2023-03-21T08:12:52;14.93;;;7.40;;
39016;SDS011;24784;45.582;5.276;2023-03-21T08:15:18;14.68;;;8.07;;
39016;SDS011;24784;45.582;5.276;2023-03-21T08:17:44;11.38;;;7.30;;
39016;SDS011;24784;45.582;5.276;2023-03-21T08:20:12;10.90;;;7.63;;
39016;SDS011;24784;45.582;5.276;2023-03-21T08:22:41;15.48;;;7.78;;
39016;SDS011;24784;45.582;5.276;2023-03-21T08:25:08;9.77;;;6.72;;
39016;SDS011;24784;45.582;5.276;2023-03-21T08:27:37;15.38;;;7.22;;
39016;SDS011;24784;45.582;5.276;2023-03-21T08:30:04;11.00;;;7.05;;
39016;SDS011;24784;45.582;5.276;2023-03-21T08:32:31;11.25;;;7.13;;
39016;SDS011;24784;45.582;5.276;2023-03-21T08:35:00;10.57;;;7.13;;
39016;SDS011;24784;45.582;5.276;2023-03-21T08:37:28;14.07;;;6.93;;
39016;SDS011;24784;45.582;5.276;2023-03-21T08:39:54;10.50;;;6.75;;
39016;SDS011;24784;45.582;5.276;2023-03-21T08:42:20;16.58;;;7.10;;
39016;SDS011;24784;45.582;5.276;2023-03-21T08:44:47;14.65;;;7.32;;
39016;SDS011;24784;45.582;5.276;2023-03-21T08:47:13;11.65;;;7.20;;
39016;SDS011;24784;45.582;5.276;2023-03-21T08:49:39;12.18;;;7.25;;
39016;SDS011;24784;45.582;5.276;2023-03-21T08:52:06;12.50;;;6.70;;
39016;SDS011;24784;45.582;5.276;2023-03-21T08:54:32;9.43;;;6.72;;
39016;SDS011;24784;45.582;5.276;2023-03-21T08:56:58;13.63;;;6.72;;
39016;SDS011;24784;45.582;5.276;2023-03-21T08:59:24;11.02;;;6.53;;
39016;SDS011;24784;45.582;5.276;2023-03-21T09:01:50;8.88;;;6.28;;
39016;SDS011;24784;45.582;5.276;2023-03-21T09:04:16;10.15;;;7.65;;
39016;SDS011;24784;45.582;5.276;2023-03-21T09:06:43;14.88;;;7.65;;
39016;SDS011;24784;45.582;5.276;2023-03-21T09:09:13;13.18;;;7.57;;
39016;SDS011;24784;45.582;5.276;2023-03-21T09:11:39;12.25;;;6.93;;
39016;SDS011;24784;45.582;5.276;2023-03-21T09:14:05;16.30;;;8.00;;
39016;SDS011;24784;45.582;5.276;2023-03-21T09:16:31;13.77;;;7.25;;
39016;SDS011;24784;45.582;5.276;2023-03-21T09:18:57;11.75;;;7.18;;
39016;SDS011;24784;45.582;5.276;2023-03-21T09:21:24;12.00;;;7.20;;
39016;SDS011;24784;45.582;5.276;2023-03-21T09:23:52;18.85;;;7.57;;
39016;SDS011;24784;45.582;5.276;2023-03-21T09:26:20;15.05;;;7.13;;
39016;SDS011;24784;45.582;5.276;2023-03-21T09:28:47;14.10;;;7.38;;
39016;SDS011;24784;45.582;5.276;2023-03-21T09:31:14;16.80;;;7.90;;
39016;SDS011;24784;45.582;5.276;2023-03-21T09:33:45;15.02;;;8.50;;
39016;SDS011;24784;45.582;5.276;2023-03-21T09:36:11;13.32;;;7.45;;
39016;SDS011;24784;45.582;5.276;2023-03-21T09:38:41;15.65;;;7.88;;
39016;SDS011;24784;45.582;5.276;2023-03-21T09:41:28;10.40;;;7.40;;
39016;SDS011;24784;45.582;5.276;2023-03-21T09:44:17;12.90;;;8.40;;
39016;SDS011;24784;45.582;5.276;2023-03-21T09:47:02;15.90;;;7.75;;
39016;SDS011;24784;45.582;5.276;2023-03-21T09:49:42;14.98;;;7.97;;
39016;SDS011;24784;45.582;5.276;2023-03-21T09:52:20;14.30;;;7.32;;
39016;SDS011;24784;45.582;5.276;2023-03-21T09:55:18;14.38;;;6.90;;
39016;SDS011;24784;45.582;5.276;2023-03-21T09:57:55;12.90;;;6.07;;
39016;SDS011;24784;45.582;5.276;2023-03-21T10:00:33;12.15;;;6.55;;
39016;SDS011;24784;45.582;5.276;2023-03-21T10:03:20;8.02;;;6.13;;
39016;SDS011;24784;45.582;5.276;2023-03-21T10:05:53;11.27;;;6.65;;
39016;SDS011;24784;45.582;5.276;2023-03-21T10:10:55;9.85;;;6.40;;
39016;SDS011;24784;45.582;5.276;2023-03-21T10:13:31;10.45;;;5.97;;
39016;SDS011;24784;45.582;5.276;2023-03-21T10:16:00;11.75;;;6.50;;
39016;SDS011;24784;45.582;5.276;2023-03-21T10:18:34;7.43;;;6.10;;
39016;SDS011;24784;45.582;5.276;2023-03-21T10:21:01;7.43;;;5.60;;
39016;SDS011;24784;45.582;5.276;2023-03-21T10:23:29;10.38;;;6.32;;
39016;SDS011;24784;45.582;5.276;2023-03-21T10:25:59;15.05;;;6.65;;
39016;SDS011;24784;45.582;5.276;2023-03-21T10:28:27;7.88;;;5.40;;
39016;SDS011;24784;45.582;5.276;2023-03-21T10:30:59;9.15;;;5.53;;
39016;SDS011;24784;45.582;5.276;2023-03-21T10:33:35;10.95;;;5.85;;
39016;SDS011;24784;45.582;5.276;2023-03-21T10:36:07;7.07;;;5.38;;
39016;SDS011;24784;45.582;5.276;2023-03-21T10:38:36;9.80;;;5.35;;
39016;SDS011;24784;45.582;5.276;2023-03-21T10:41:08;10.40;;;7.30;;
39016;SDS011;24784;45.582;5.276;2023-03-21T10:43:36;8.15;;;4.82;;
39016;SDS011;24784;45.582;5.276;2023-03-21T10:46:08;8.52;;;5.53;;
39016;SDS011;24784;45.582;5.276;2023-03-21T10:48:38;9.85;;;5.55;;
39016;SDS011;24784;45.582;5.276;2023-03-21T10:51:07;6.85;;;4.93;;
39016;SDS011;24784;45.582;5.276;2023-03-21T10:53:40;8.75;;;5.50;;
39016;SDS011;24784;45.582;5.276;2023-03-21T10:56:13;6.72;;;4.82;;
39016;SDS011;24784;45.582;5.276;2023-03-21T10:58:45;8.05;;;5.00;;
39016;SDS011;24784;45.582;5.276;2023-03-21T11:01:13;7.07;;;4.60;;
39016;SDS011;24784;45.582;5.276;2023-03-21T11:03:53;6.78;;;5.22;;
39016;SDS011;24784;45.582;5.276;2023-03-21T11:06:31;11.35;;;5.38;;
39016;SDS011;24784;45.582;5.276;2023-03-21T11:09:04;9.02;;;5.80;;
39016;SDS011;24784;45.582;5.276;2023-03-21T11:11:50;8.45;;;5.75;;
39016;SDS011;24784;45.582;5.276;2023-03-21T11:14:37;10.98;;;5.32;;
39016;SDS011;24784;45.582;5.276;2023-03-21T11:19:40;6.68;;;5.05;;
39016;SDS011;24784;45.582;5.276;2023-03-21T11:22:11;8.57;;;4.90;;
39016;SDS011;24784;45.582;5.276;2023-03-21T11:24:37;6.05;;;4.22;;
39016;SDS011;24784;45.582;5.276;2023-03-21T11:27:04;8.57;;;4.50;;
39016;SDS011;24784;45.582;5.276;2023-03-21T11:29:33;5.05;;;4.07;;
39016;SDS011;24784;45.582;5.276;2023-03-21T11:32:11;5.22;;;3.92;;
39016;SDS011;24784;45.582;5.276;2023-03-21T11:37:38;8.30;;;4.70;;
39016;SDS011;24784;45.582;5.276;2023-03-21T11:40:25;6.03;;;4.10;;
39016;SDS011;24784;45.582;5.276;2023-03-21T11:45:22;6.57;;;3.10;;
39016;SDS011;24784;45.582;5.276;2023-03-21T11:47:51;5.50;;;3.00;;
39016;SDS011;24784;45.582;5.276;2023-03-21T12:00:53;4.68;;;2.58;;
39016;SDS011;24784;45.582;5.276;2023-03-21T12:06:37;4.88;;;2.75;;
39016;SDS011;24784;45.582;5.276;2023-03-21T12:18:15;4.78;;;2.38;;
39016;SDS011;24784;45.582;5.276;2023-03-21T12:23:15;3.03;;;1.25;;
39016;SDS011;24784;45.582;5.276;2023-03-21T12:26:13;3.10;;;1.50;;
39016;SDS011;24784;45.582;5.276;2023-03-21T12:39:31;2.40;;;1.52;;
39016;SDS011;24784;45.582;5.276;2023-03-21T12:42:29;2.20;;;1.17;;
39016;SDS011;24784;45.582;5.276;2023-03-21T12:47:26;2.58;;;1.33;;
39016;SDS011;24784;45.582;5.276;2023-03-21T12:52:56;6.15;;;2.05;;
39016;SDS011;24784;45.582;5.276;2023-03-21T12:55:26;5.25;;;2.13;;
39016;SDS011;24784;45.582;5.276;2023-03-21T12:58:03;3.67;;;2.05;;
39016;SDS011;24784;45.582;5.276;2023-03-21T13:06:22;3.58;;;1.70;;
39016;SDS011;24784;45.582;5.276;2023-03-21T13:08:55;3.22;;;1.98;;
39016;SDS011;24784;45.582;5.276;2023-03-21T13:11:41;2.88;;;1.95;;
39016;SDS011;24784;45.582;5.276;2023-03-21T13:14:42;3.70;;;1.60;;
39016;SDS011;24784;45.582;5.276;2023-03-21T13:25:04;3.38;;;1.90;;
39016;SDS011;24784;45.582;5.276;2023-03-21T13:27:33;4.20;;;1.15;;
39016;SDS011;24784;45.582;5.276;2023-03-21T13:30:21;3.67;;;1.60;;
39016;SDS011;24784;45.582;5.276;2023-03-21T13:33:10;2.95;;;1.67;;
39016;SDS011;24784;45.582;5.276;2023-03-21T13:35:39;1.92;;;1.17;;
39016;SDS011;24784;45.582;5.276;2023-03-21T13:38:11;3.30;;;1.58;;
39016;SDS011;24784;45.582;5.276;2023-03-21T13:40:43;1.83;;;1.40;;
39016;SDS011;24784;45.582;5.276;2023-03-21T13:54:02;3.45;;;1.13;;
39016;SDS011;24784;45.582;5.276;2023-03-21T13:59:09;2.05;;;1.10;;
39016;SDS011;24784;45.582;5.276;2023-03-21T14:01:38;5.88;;;1.30;;
39016;SDS011;24784;45.582;5.276;2023-03-21T14:04:11;2.55;;;1.20;;
39016;SDS011;24784;45.582;5.276;2023-03-21T14:06:58;1.35;;;1.00;;
39016;SDS011;24784;45.582;5.276;2023-03-21T14:12:00;2.83;;;1.33;;
39016;SDS011;24784;45.582;5.276;2023-03-21T14:14:32;1.77;;;0.90;;
39016;SDS011;24784;45.582;5.276;2023-03-21T14:20:20;6.75;;;2.28;;
39016;SDS011;24784;45.582;5.276;2023-03-21T14:22:51;4.65;;;1.58;;
39016;SDS011;24784;45.582;5.276;2023-03-21T14:25:18;3.83;;;1.60;;
39016;SDS011;24784;45.582;5.276;2023-03-21T14:27:47;2.80;;;1.40;;
39016;SDS011;24784;45.582;5.276;2023-03-21T14:36:01;7.00;;;1.38;;
39016;SDS011;24784;45.582;5.276;2023-03-21T14:38:34;5.85;;;1.40;;
39016;SDS011;24784;45.582;5.276;2023-03-21T14:41:02;2.70;;;1.45;;
39016;SDS011;24784;45.582;5.276;2023-03-21T14:43:29;5.80;;;1.38;;
39016;SDS011;24784;45.582;5.276;2023-03-21T14:45:58;3.63;;;1.30;;
39016;SDS011;24784;45.582;5.276;2023-03-21T14:48:32;6.00;;;1.77;;
39016;SDS011;24784;45.582;5.276;2023-03-21T14:51:05;5.25;;;1.35;;
39016;SDS011;24784;45.582;5.276;2023-03-21T14:53:40;7.35;;;1.30;;
39016;SDS011;24784;45.582;5.276;2023-03-21T14:56:23;9.38;;;2.47;;
39016;SDS011;24784;45.582;5.276;2023-03-21T14:58:51;2.50;;;1.40;;
39016;SDS011;24784;45.582;5.276;2023-03-21T15:01:27;4.40;;;1.52;;
39016;SDS011;24784;45.582;5.276;2023-03-21T15:03:56;5.47;;;1.52;;
39016;SDS011;24784;45.582;5.276;2023-03-21T15:06:23;2.78;;;1.30;;
39016;SDS011;24784;45.582;5.276;2023-03-21T15:09:14;5.10;;;1.42;;
39016;SDS011;24784;45.582;5.276;2023-03-21T15:11:48;2.25;;;1.25;;
39016;SDS011;24784;45.582;5.276;2023-03-21T15:14:16;5.05;;;2.15;;
39016;SDS011;24784;45.582;5.276;2023-03-21T15:16:59;6.35;;;1.40;;
39016;SDS011;24784;45.582;5.276;2023-03-21T15:19:29;3.80;;;1.48;;
39016;SDS011;24784;45.582;5.276;2023-03-21T15:22:02;6.13;;;1.38;;
39016;SDS011;24784;45.582;5.276;2023-03-21T15:24:35;4.30;;;1.85;;
39016;SDS011;24784;45.582;5.276;2023-03-21T15:27:06;1.58;;;1.20;;
39016;SDS011;24784;45.582;5.276;2023-03-21T15:29:37;7.47;;;1.77;;
39016;SDS011;24784;45.582;5.276;2023-03-21T15:32:06;5.00;;;1.70;;
39016;SDS011;24784;45.582;5.276;2023-03-21T15:34:38;2.78;;;1.33;;
39016;SDS011;24784;45.582;5.276;2023-03-21T15:37:05;4.93;;;1.52;;
39016;SDS011;24784;45.582;5.276;2023-03-21T15:39:33;6.47;;;1.73;;
39016;SDS011;24784;45.582;5.276;2023-03-21T15:42:01;1.90;;;1.40;;
39016;SDS011;24784;45.582;5.276;2023-03-21T15:44:30;4.32;;;1.20;;
39016;SDS011;24784;45.582;5.276;2023-03-21T15:46:57;5.47;;;1.58;;
39016;SDS011;24784;45.582;5.276;2023-03-21T15:49:25;2.92;;;1.20;;
39016;SDS011;24784;45.582;5.276;2023-03-21T15:54:33;2.97;;;1.63;;
39016;SDS011;24784;45.582;5.276;2023-03-21T15:57:14;4.45;;;1.85;;
39016;SDS011;24784;45.582;5.276;2023-03-21T15:59:49;2.10;;;1.55;;
39016;SDS011;24784;45.582;5.276;2023-03-21T16:02:21;2.42;;;1.40;;
39016;SDS011;24784;45.582;5.276;2023-03-21T16:07:43;4.03;;;1.23;;
39016;SDS011;24784;45.582;5.276;2023-03-21T16:10:16;3.42;;;1.55;;
39016;SDS011;24784;45.582;5.276;2023-03-21T16:12:56;8.35;;;2.03;;
39016;SDS011;24784;45.582;5.276;2023-03-21T16:15:23;6.78;;;1.80;;
39016;SDS011;24784;45.582;5.276;2023-03-21T16:17:51;7.30;;;2.05;;
39016;SDS011;24784;45.582;5.276;2023-03-21T16:20:26;5.28;;;1.90;;
39016;SDS011;24784;45.582;5.276;2023-03-21T16:22:56;4.25;;;1.70;;
39016;SDS011;24784;45.582;5.276;2023-03-21T16:25:23;5.97;;;1.77;;
39016;SDS011;24784;45.582;5.276;2023-03-21T16:27:49;3.65;;;1.48;;
39016;SDS011;24784;45.582;5.276;2023-03-21T16:30:17;5.22;;;1.90;;
39016;SDS011;24784;45.582;5.276;2023-03-21T16:32:45;5.43;;;1.55;;
39016;SDS011;24784;45.582;5.276;2023-03-21T16:35:11;4.85;;;1.42;;
39016;SDS011;24784;45.582;5.276;2023-03-21T16:37:37;4.93;;;1.52;;
39016;SDS011;24784;45.582;5.276;2023-03-21T16:42:41;4.22;;;2.50;;
39016;SDS011;24784;45.582;5.276;2023-03-21T16:45:08;6.32;;;2.63;;
39016;SDS011;24784;45.582;5.276;2023-03-21T16:47:35;4.53;;;1.73;;
39016;SDS011;24784;45.582;5.276;2023-03-21T16:50:00;2.13;;;1.40;;
39016;SDS011;24784;45.582;5.276;2023-03-21T16:52:26;3.17;;;1.85;;
39016;SDS011;24784;45.582;5.276;2023-03-21T16:54:52;2.58;;;1.45;;
39016;SDS011;24784;45.582;5.276;2023-03-21T16:57:23;5.95;;;2.25;;
39016;SDS011;24784;45.582;5.276;2023-03-21T16:59:53;5.95;;;2.50;;
39016;SDS011;24784;45.582;5.276;2023-03-21T17:02:20;7.38;;;2.00;;
39016;SDS011;24784;45.582;5.276;2023-03-21T17:04:47;4.13;;;1.60;;
39016;SDS011;24784;45.582;5.276;2023-03-21T17:07:13;6.97;;;1.67;;
39016;SDS011;24784;45.582;5.276;2023-03-21T17:09:40;2.75;;;1.58;;
39016;SDS011;24784;45.582;5.276;2023-03-21T17:12:14;6.07;;;2.08;;
39016;SDS011;24784;45.582;5.276;2023-03-21T17:14:42;3.90;;;1.98;;
39016;SDS011;24784;45.582;5.276;2023-03-21T17:17:09;1.75;;;1.30;;
39016;SDS011;24784;45.582;5.276;2023-03-21T17:19:35;4.13;;;1.75;;
39016;SDS011;24784;45.582;5.276;2023-03-21T17:22:01;11.27;;;2.13;;